Modesto, California
Current Conditions -  °F | °C
As of 11:53 PM on Monday 20 Oct 2014 (Local Time) from KMOD Reporting Station
Clear Clear  
Wind Chill: 60°   Ceiling: Unl
Heat Index: 60°   Visibility: 10mi
Dew Point: 52°   Wind: 6mph
Humidity: 75%   Direction: 310°NW
Pressure: 30.05"   Gusts: NA
Location:  37.64°N, 120.99°W
Report Text: KMOD 210653Z AUTO 31005KT 10SM CLR 16/11 A3005 RMK AO2 SLP176 T01560111
Loading
Personal Weather Stations






























Interactive Weather Map New forecast layout! Learn more

10-Day Weather Forecast

Advertisements
Track Severe Weather on mobile